Caergwrle, United Kingdom
Current Conditions -  °F | °C
As of 8:20 AM on Thursday 18 Dec 2014 (Local Time) from EGNR Reporting Station
Rain Showers Rain Showers  
Wind Chill: 13°   Ceiling: Unl
Heat Index: 13°   Visibility: 6mi
Dew Point: 11°   Wind: 17mph
Humidity: 88%   Direction: 230°SW
Pressure: 29.65"   Gusts: NA
Location:  53.11°N, 3.04°W
Report Text: EGNR 180820Z 23015KT 9999 VCSH FEW010 SCT015 13/11 Q1004
Loading
Personal Weather Stations






























Interactive Weather Map New forecast layout! Learn more

10-Day Weather Forecast

Advertisements
Track Severe Weather on mobile